Time;durP1;ratioP1;P1;durP2;ratioP2;P2;SDS_P1;SDS_P2;PMS_P1;PMS_P2;Temp;Humidity;BMP_temperature;BMP_pressure;BME280_temperature;BME280_humidity;BME280_pressure;Samples;Min_cycle;Max_cycle;Signal;HPM_P1;HPM_P2
2024/04/24 00:02:10;;;;;;;2.05;1.55;;;;;;;9.11;100.00;99879.69;5131612;27;20003;-69
2024/04/24 00:04:36;;;;;;;1.50;1.30;;;;;;;9.13;100.00;99873.28;5130652;27;20006;-69
2024/04/24 00:07:03;;;;;;;1.98;1.70;;;;;;;9.13;100.00;99860.03;5117182;27;20483;-69
2024/04/24 00:09:30;;;;;;;1.70;1.60;;;;;;;9.09;100.00;99860.44;5176471;27;20071;-68
2024/04/24 00:11:56;;;;;;;1.67;1.45;;;;;;;9.05;100.00;99870.50;5128171;27;20403;-68
2024/04/24 00:14:25;;;;;;;3.42;1.70;;;;;;;9.03;100.00;99861.00;5128180;27;19999;-68
2024/04/24 00:16:51;;;;;;;2.00;1.77;;;;;;;9.01;100.00;99858.50;5128886;27;20069;-69
2024/04/24 00:19:18;;;;;;;1.63;1.52;;;;;;;8.97;100.00;99857.13;5157062;27;20369;-69
2024/04/24 00:21:44;;;;;;;2.72;1.50;;;;;;;8.93;100.00;99852.25;5215568;27;20003;-69
2024/04/24 00:24:14;;;;;;;1.42;1.33;;;;;;;8.91;100.00;99856.84;5187641;27;19999;-68
2024/04/24 00:26:41;;;;;;;1.65;1.55;;;;;;;8.89;100.00;99851.69;5189042;27;20478;-68
2024/04/24 00:29:09;;;;;;;1.70;1.50;;;;;;;8.92;100.00;99855.91;5214860;27;20023;-69
2024/04/24 00:31:36;;;;;;;2.20;1.75;;;;;;;8.86;100.00;99854.63;5214423;27;20006;-68
2024/04/24 00:34:02;;;;;;;1.77;1.38;;;;;;;8.85;100.00;99862.72;5214562;27;20003;-68
2024/04/24 00:36:29;;;;;;;3.15;1.40;;;;;;;8.85;100.00;99858.28;5159908;27;20051;-69
2024/04/24 00:38:57;;;;;;;2.65;1.52;;;;;;;8.86;100.00;99857.28;5250627;26;20012;-68
2024/04/24 00:41:24;;;;;;;1.85;1.63;;;;;;;8.91;100.00;99859.50;5281180;27;20452;-69
2024/04/24 00:43:52;;;;;;;1.75;1.65;;;;;;;8.89;100.00;99864.94;5253263;27;20013;-68
2024/04/24 00:46:19;;;;;;;2.35;1.30;;;;;;;8.91;100.00;99854.22;5253611;27;20016;-68
2024/04/24 00:48:45;;;;;;;2.63;1.75;;;;;;;8.92;100.00;99853.25;5225650;27;19997;-68
2024/04/24 00:51:11;;;;;;;2.50;1.63;;;;;;;8.94;100.00;99853.91;5199170;27;20025;-69
2024/04/24 00:53:37;;;;;;;2.83;2.17;;;;;;;8.93;100.00;99866.34;5225425;27;20460;-67
2024/04/24 00:56:04;;;;;;;2.13;1.75;;;;;;;9.06;100.00;99858.91;5225675;27;20006;-67
2024/04/24 00:58:32;;;;;;;1.85;1.52;;;;;;;8.99;100.00;99865.78;5253489;27;20068;-67
2024/04/24 01:00:58;;;;;;;1.70;1.60;;;;;;;8.97;100.00;99869.53;5225858;27;20348;-67
2024/04/24 01:03:25;;;;;;;2.95;1.98;;;;;;;8.92;100.00;99875.25;5252651;27;20005;-68
2024/04/24 01:05:52;;;;;;;2.60;1.67;;;;;;;8.95;100.00;99868.84;5225681;27;20456;-67
2024/04/24 01:08:18;;;;;;;2.88;2.00;;;;;;;8.94;100.00;99865.38;5252617;27;20101;-68
2024/04/24 01:10:44;;;;;;;2.72;1.90;;;;;;;8.94;100.00;99872.47;5225048;27;20044;-67
2024/04/24 01:13:10;;;;;;;1.70;1.60;;;;;;;8.91;100.00;99873.59;5223723;27;20005;-67
2024/04/24 01:15:37;;;;;;;2.90;1.70;;;;;;;8.91;100.00;99868.28;5251774;27;19997;-67
2024/04/24 01:18:04;;;;;;;1.60;1.50;;;;;;;8.88;100.00;99873.88;5231277;26;19997;-67
2024/04/24 01:20:31;;;;;;;2.05;1.77;;;;;;;8.89;100.00;99869.44;5288835;26;19997;-69
2024/04/24 01:23:33;;;;;;;2.47;2.00;;;;;;;8.94;100.00;99873.31;5288196;26;20419;-69
2024/04/24 01:26:13;;;;;;;2.08;1.90;;;;;;;8.88;100.00;99871.22;5316949;26;20001;-69
2024/04/24 01:28:39;;;;;;;2.58;1.85;;;;;;;8.77;100.00;99873.19;5316672;26;20001;-69
2024/04/24 01:31:07;;;;;;;3.70;2.00;;;;;;;8.70;100.00;99872.09;5316852;26;20075;-69
2024/04/24 01:33:33;;;;;;;3.25;2.15;;;;;;;8.68;100.00;99872.22;5344826;26;20091;-69
2024/04/24 01:35:59;;;;;;;2.90;1.90;;;;;;;8.66;100.00;99874.16;5292507;26;20016;-69
2024/04/24 01:38:27;;;;;;;3.38;2.25;;;;;;;8.61;100.00;99871.09;5322172;26;20407;-69
2024/04/24 01:40:52;;;;;;;2.97;2.20;;;;;;;8.59;100.00;99868.59;5350802;26;20016;-69
2024/04/24 01:43:19;;;;;;;4.28;2.03;;;;;;;8.53;100.00;99869.16;5321759;26;20015;-69
2024/04/24 01:45:45;;;;;;;2.83;2.08;;;;;;;8.54;100.00;99872.63;5294197;26;20019;-69
2024/04/24 01:48:11;;;;;;;3.70;1.98;;;;;;;8.51;100.00;99871.13;5351272;26;20100;-68
2024/04/24 01:50:39;;;;;;;2.67;2.10;;;;;;;8.55;100.00;99882.25;5382172;26;20074;-69
2024/04/24 01:53:06;;;;;;;8.52;2.97;;;;;;;8.54;100.00;99877.94;5353355;26;20004;-69
2024/04/24 01:55:33;;;;;;;5.07;3.30;;;;;;;8.53;100.00;99877.09;5323161;26;20070;-70
2024/04/24 01:58:01;;;;;;;3.97;3.20;;;;;;;8.55;100.00;99874.31;5322343;26;20505;-69
2024/04/24 02:00:27;;;;;;;4.28;3.05;;;;;;;8.56;100.00;99881.28;5322348;26;20074;-70
2024/04/24 02:02:55;;;;;;;4.45;3.08;;;;;;;8.52;100.00;99890.47;5351014;26;20015;-69
2024/04/24 02:05:21;;;;;;;4.03;3.10;;;;;;;8.54;100.00;99896.47;5324414;26;20004;-68
2024/04/24 02:07:48;;;;;;;4.40;2.90;;;;;;;8.46;100.00;99894.50;5326526;26;20055;-69
2024/04/24 02:10:14;;;;;;;5.50;3.17;;;;;;;8.39;100.00;99903.97;5348329;26;20001;-69
2024/04/24 02:12:40;;;;;;;4.75;3.13;;;;;;;8.28;100.00;99908.56;5290048;26;20038;-69
2024/04/24 02:15:09;;;;;;;4.57;2.58;;;;;;;8.22;100.00;99903.78;5287382;26;20032;-69
2024/04/24 02:17:36;;;;;;;2.92;2.53;;;;;;;8.16;100.00;99904.34;5315054;26;19997;-69
2024/04/24 02:20:02;;;;;;;3.40;2.55;;;;;;;8.18;100.00;99905.84;5315144;26;20238;-68
2024/04/24 02:22:30;;;;;;;3.17;2.35;;;;;;;8.22;100.00;99901.13;5286445;26;20103;-68
2024/04/24 02:27:41;;;;;;;5.35;2.47;;;;;;;8.28;100.00;99906.75;5318882;26;20012;-68
2024/04/24 02:30:07;;;;;;;2.80;2.13;;;;;;;8.40;100.00;99920.69;5286163;26;20112;-68
2024/04/24 02:32:33;;;;;;;2.28;2.00;;;;;;;8.46;100.00;99920.97;5286941;26;19993;-68
2024/04/24 02:35:00;;;;;;;2.85;2.38;;;;;;;8.50;100.00;99918.91;5288266;26;20001;-68
2024/04/24 02:37:27;;;;;;;4.20;2.17;;;;;;;8.53;100.00;99916.78;5243272;27;20003;-68
2024/04/24 02:39:53;;;;;;;3.17;2.45;;;;;;;8.52;100.00;99915.13;5188306;27;20072;-69
2024/04/24 02:42:22;;;;;;;3.78;2.47;;;;;;;8.49;100.00;99928.66;5249604;27;19997;-69
2024/04/24 02:44:51;;;;;;;;;;;;;;;8.58;100.00;99926.97;5180373;27;20019;-68
2024/04/24 02:47:19;;;;;;;2.60;2.20;;;;;;;8.44;100.00;99936.16;5127364;27;19928;-68
2024/04/24 02:49:48;;;;;;;3.05;2.17;;;;;;;8.41;100.00;99928.50;5153721;27;20086;-68
2024/04/24 02:52:14;;;;;;;4.88;2.70;;;;;;;8.38;100.00;99938.50;5152818;27;20015;-68
2024/04/24 02:54:41;;;;;;;3.05;2.20;;;;;;;8.30;100.00;99939.19;5122607;27;20015;-68
2024/04/24 02:57:06;;;;;;;3.50;2.42;;;;;;;8.30;100.00;99933.91;5148410;27;20004;-69
2024/04/24 02:59:33;;;;;;;3.10;2.63;;;;;;;8.28;100.00;99940.31;5120924;27;20363;-67
2024/04/24 03:01:58;;;;;;;5.00;3.10;;;;;;;8.24;100.00;99944.22;5121006;27;20040;-69
2024/04/24 03:04:24;;;;;;;8.15;3.50;;;;;;;8.23;100.00;99942.53;5121574;27;20429;-69
2024/04/24 03:06:52;;;;;;;4.13;2.95;;;;;;;8.22;100.00;99949.66;5122245;27;20044;-69
2024/04/24 03:09:18;;;;;;;3.10;2.20;;;;;;;8.21;100.00;99952.41;5027260;28;20067;-69
2024/04/24 03:11:44;;;;;;;3.72;2.72;;;;;;;8.19;100.00;99951.69;5052243;28;20475;-65
2024/04/24 03:14:10;;;;;;;3.75;2.83;;;;;;;8.21;100.00;99942.63;5052095;28;20487;-65
2024/04/24 03:16:36;;;;;;;4.90;2.58;;;;;;;8.16;100.00;99947.47;5026371;28;20009;-82
2024/04/24 03:19:02;;;;;;;4.18;2.63;;;;;;;8.15;100.00;99947.63;5053445;28;20034;-81
2024/04/24 03:21:28;;;;;;;3.53;2.88;;;;;;;8.31;100.00;99959.41;5052534;28;20017;-77
2024/04/24 03:23:54;;;;;;;4.60;2.50;;;;;;;8.40;100.00;99955.94;5052248;28;20006;-76
2024/04/24 03:26:21;;;;;;;3.47;2.70;;;;;;;8.34;100.00;99961.78;5057369;28;20014;-75
2024/04/24 03:28:46;;;;;;;3.88;2.70;;;;;;;8.30;100.00;99952.41;5149658;27;20002;-74
2024/04/24 03:31:13;;;;;;;5.45;2.65;;;;;;;8.38;100.00;99964.97;5194202;27;20022;-77
2024/04/24 03:33:39;;;;;;;4.63;3.13;;;;;;;8.42;100.00;99955.81;5279745;27;20002;-77
2024/04/24 03:36:05;;;;;;;4.85;3.40;;;;;;;8.41;100.00;99951.50;5281551;27;20112;-78
2024/04/24 03:38:31;;;;;;;4.15;3.15;;;;;;;8.46;100.00;99958.03;5308822;27;20002;-74
2024/04/24 03:40:56;;;;;;;4.05;2.95;;;;;;;8.52;100.00;99959.28;5252068;27;20001;-72
2024/04/24 03:43:22;;;;;;;5.72;3.65;;;;;;;8.57;100.00;99960.56;5275361;27;20012;-76
2024/04/24 03:45:48;;;;;;;4.25;3.17;;;;;;;8.61;100.00;99966.41;5278885;27;19999;-76
2024/04/24 03:48:14;;;;;;;6.35;3.30;;;;;;;8.64;100.00;99960.88;5311287;27;20033;-76
2024/04/24 03:50:40;;;;;;;6.70;3.33;;;;;;;8.68;100.00;99961.41;5282019;27;19994;-76
2024/04/24 03:53:06;;;;;;;7.63;3.92;;;;;;;8.71;100.00;99958.47;5281243;27;20325;-77
2024/04/24 03:55:33;;;;;;;5.78;3.55;;;;;;;8.75;100.00;99952.75;5280373;27;20009;-77
2024/04/24 03:57:59;;;;;;;4.88;3.80;;;;;;;8.82;100.00;99958.34;5286101;26;20006;-75
2024/04/24 04:00:25;;;;;;;4.43;3.65;;;;;;;8.88;100.00;99958.63;5344434;26;20001;-78
2024/04/24 04:02:50;;;;;;;4.72;3.50;;;;;;;8.95;100.00;99962.38;5344936;26;20364;-78
2024/04/24 04:05:16;;;;;;;5.18;3.40;;;;;;;9.02;100.00;99952.91;5363900;26;20008;-76
2024/04/24 04:07:42;;;;;;;4.72;3.25;;;;;;;9.07;100.00;99960.44;5363983;26;20501;-77
2024/04/24 04:10:08;;;;;;;7.30;3.78;;;;;;;9.13;100.00;99958.06;5334984;26;20431;-74
2024/04/24 04:12:34;;;;;;;3.72;3.03;;;;;;;9.22;100.00;99961.69;5362866;26;20012;-74
2024/04/24 04:14:59;;;;;;;7.60;4.10;;;;;;;9.31;100.00;99952.88;5366009;26;20008;-75
2024/04/24 04:17:26;;;;;;;6.80;4.40;;;;;;;9.35;100.00;99956.94;5335688;26;20000;-73
2024/04/24 04:19:52;;;;;;;7.22;4.20;;;;;;;9.39;100.00;99958.31;5363421;26;20005;-73
2024/04/24 04:22:18;;;;;;;6.07;3.90;;;;;;;9.41;100.00;99946.56;5332423;26;20004;-72
2024/04/24 04:24:44;;;;;;;4.75;3.13;;;;;;;9.49;100.00;99956.44;5354679;26;20335;-73
2024/04/24 04:27:09;;;;;;;4.75;3.00;;;;;;;9.57;100.00;99951.28;5345431;26;20004;-74
2024/04/24 04:29:35;;;;;;;3.20;2.90;;;;;;;9.62;100.00;99947.22;5342711;26;20016;-73
2024/04/24 04:32:01;;;;;;;4.60;3.00;;;;;;;9.69;100.00;99955.41;5331453;26;20001;-80
2024/04/24 04:34:27;;;;;;;2.88;2.45;;;;;;;9.77;100.00;99950.22;5328074;26;20001;-81
2024/04/24 04:36:54;;;;;;;4.40;2.67;;;;;;;9.87;100.00;99951.84;5338023;26;20048;-73
2024/04/24 04:39:21;;;;;;;3.20;2.47;;;;;;;9.98;100.00;99949.03;5305494;26;20030;-73
2024/04/24 04:41:47;;;;;;;2.65;2.30;;;;;;;10.07;100.00;99947.34;5352668;26;20004;-74
2024/04/24 04:44:12;;;;;;;3.45;2.60;;;;;;;10.17;100.00;99945.47;5334955;26;19999;-77
2024/04/24 04:46:38;;;;;;;3.15;2.60;;;;;;;10.27;100.00;99948.09;5393588;26;20011;-78
2024/04/24 04:49:05;;;;;;;4.10;2.53;;;;;;;10.37;100.00;99943.53;5276173;26;20000;-77
2024/04/24 04:51:31;;;;;;;4.25;2.75;;;;;;;10.48;100.00;99943.31;5364644;26;20000;-78
2024/04/24 04:53:57;;;;;;;4.97;2.90;;;;;;;10.58;100.00;99944.13;5333432;26;20016;-76
2024/04/24 04:56:26;;;;;;;2.75;2.20;;;;;;;10.66;100.00;99941.50;5311423;26;19999;-76
2024/04/24 04:58:53;;;;;;;2.53;2.20;;;;;;;10.75;100.00;99936.13;5291553;26;20523;-74
2024/04/24 05:01:18;;;;;;;3.22;2.30;;;;;;;10.85;100.00;99947.53;5357012;26;19995;-76
2024/04/24 05:03:46;;;;;;;2.33;1.88;;;;;;;10.89;100.00;99948.03;5304803;26;20354;-78
2024/04/24 05:06:13;;;;;;;2.28;2.05;;;;;;;10.93;100.00;99944.13;5349355;26;20016;-79
2024/04/24 05:08:40;;;;;;;2.22;1.70;;;;;;;10.99;100.00;99946.16;5321544;26;20007;-78
2024/04/24 05:11:09;;;;;;;4.13;2.10;;;;;;;11.02;100.00;99945.84;5283161;27;20479;-78
2024/04/24 05:13:41;;;;;;;2.05;1.67;;;;;;;11.01;100.00;99934.38;5255406;27;20009;-78
2024/04/24 05:16:13;;;;;;;2.10;1.73;;;;;;;11.09;100.00;99930.94;5285322;27;20017;-79
2024/04/24 05:18:44;;;;;;;2.78;1.90;;;;;;;11.11;100.00;99935.13;5290666;27;20038;-77
2024/04/24 05:21:10;;;;;;;1.77;1.60;;;;;;;11.15;100.00;99935.66;5225562;27;19998;-74
2024/04/24 05:23:38;;;;;;;1.60;1.50;;;;;;;11.41;100.00;99944.47;5253038;27;19998;-75
2024/04/24 05:29:10;;;;;;;1.55;1.45;;;;;;;11.29;100.00;99945.72;5281816;27;20017;-74
2024/04/24 05:31:37;;;;;;;1.58;1.40;;;;;;;11.35;100.00;99947.75;5204577;27;20000;-76
2024/04/24 05:34:04;;;;;;;1.83;1.50;;;;;;;11.40;99.63;99943.66;5236865;27;20521;-74
2024/04/24 05:36:30;;;;;;;3.65;1.50;;;;;;;11.43;95.08;99946.00;5208759;27;20015;-74
2024/04/24 05:38:59;;;;;;;2.45;1.70;;;;;;;11.56;93.71;99948.25;5181892;27;20011;-75
2024/04/24 05:41:28;;;;;;;2.08;1.60;;;;;;;11.53;81.69;99945.91;5194147;27;20013;-75
2024/04/24 05:43:53;;;;;;;1.58;1.30;;;;;;;11.61;76.77;99953.91;5220604;27;20002;-76
2024/04/24 05:46:20;;;;;;;1.30;1.10;;;;;;;11.75;74.34;99956.03;5220860;27;20046;-75
2024/04/24 05:48:46;;;;;;;1.60;1.40;;;;;;;11.75;70.90;99948.06;5220264;27;20372;-75
2024/04/24 05:51:14;;;;;;;1.40;1.30;;;;;;;11.88;75.20;99948.47;5186884;27;20462;-74
2024/04/24 05:53:39;;;;;;;2.58;1.50;;;;;;;11.98;73.51;99954.50;5214952;27;20044;-75
2024/04/24 05:56:05;;;;;;;1.75;1.13;;;;;;;12.02;75.43;99939.06;5186931;27;20056;-78
2024/04/24 05:58:33;;;;;;;1.40;1.30;;;;;;;12.09;77.44;99940.06;5216162;27;20010;-81
2024/04/24 06:01:01;;;;;;;1.40;1.20;;;;;;;12.27;76.53;99948.81;5195550;27;19999;-79
2024/04/24 06:03:27;;;;;;;2.63;1.20;;;;;;;12.40;72.38;99951.84;5280448;26;19997;-73
2024/04/24 06:05:54;;;;;;;2.85;1.75;;;;;;;12.39;66.59;99944.84;5289319;26;20016;-79
2024/04/24 06:08:19;;;;;;;2.03;1.40;;;;;;;12.55;66.92;99937.72;5290668;26;20036;-79
2024/04/24 06:10:47;;;;;;;2.35;1.50;;;;;;;12.62;64.25;99935.25;5321546;26;20428;-82
2024/04/24 06:13:13;;;;;;;3.65;1.45;;;;;;;12.72;64.00;99933.25;5287401;26;20008;-77
2024/04/24 06:15:39;;;;;;;1.10;1.00;;;;;;;12.82;63.71;99942.75;5241911;27;20027;-76
2024/04/24 06:18:06;;;;;;;2.03;1.35;;;;;;;12.91;61.75;99935.63;5159319;27;20010;-77
2024/04/24 06:20:32;;;;;;;1.40;1.15;;;;;;;13.03;61.90;99932.50;5186937;27;20011;-77
2024/04/24 06:22:58;;;;;;;1.25;1.10;;;;;;;13.14;62.63;99939.31;5181329;27;20003;-79
2024/04/24 06:25:24;;;;;;;2.15;1.20;;;;;;;13.25;64.20;99929.13;5207968;27;20003;-78
2024/04/24 06:27:50;;;;;;;1.35;1.25;;;;;;;13.40;60.46;99937.31;5175405;27;20023;-76
2024/04/24 06:30:18;;;;;;;2.53;1.10;;;;;;;13.52;59.26;99930.63;5142734;27;20327;-76
2024/04/24 06:32:45;;;;;;;1.20;1.10;;;;;;;13.68;58.85;99935.09;5118999;27;20001;-75
2024/04/24 06:35:13;;;;;;;1.50;1.15;;;;;;;13.81;57.42;99938.06;5144629;27;20180;-79
2024/04/24 06:37:39;;;;;;;1.15;1.05;;;;;;;13.91;56.00;99942.22;5117118;27;20025;-77
2024/04/24 06:40:07;;;;;;;2.08;1.23;;;;;;;14.07;54.58;99935.97;5147815;27;20005;-76
2024/04/24 06:42:33;;;;;;;3.10;1.40;;;;;;;14.08;55.17;99933.13;5145162;27;20329;-76
2024/04/24 06:44:59;;;;;;;3.10;1.63;;;;;;;14.09;54.84;99929.44;5117265;27;20008;-78
2024/04/24 06:47:26;;;;;;;2.80;1.60;;;;;;;14.11;53.42;99935.47;5200815;27;20022;-78
2024/04/24 06:49:51;;;;;;;2.00;1.38;;;;;;;14.23;52.24;99930.56;5175229;27;20011;-78
2024/04/24 06:52:17;;;;;;;2.22;1.80;;;;;;;14.17;50.09;99929.44;5148648;27;20024;-79
2024/04/24 06:54:49;;;;;;;3.10;1.65;;;;;;;14.36;50.90;99929.00;5146098;27;19999;-79
2024/04/24 06:57:16;;;;;;;1.85;1.55;;;;;;;14.42;49.70;99933.66;5186666;27;20007;-79
2024/04/24 06:59:44;;;;;;;2.03;1.50;;;;;;;14.63;49.97;99930.38;5216731;27;20007;-80
2024/04/24 07:02:11;;;;;;;2.53;1.70;;;;;;;14.92;48.86;99931.34;5196199;27;20058;-81
2024/04/24 07:04:37;;;;;;;4.78;1.60;;;;;;;14.93;46.13;99930.31;5195932;27;19999;-79
2024/04/24 07:07:05;;;;;;;4.40;1.90;;;;;;;14.94;48.18;99923.13;5194365;27;20020;-78
2024/04/24 07:09:31;;;;;;;4.13;1.60;;;;;;;15.02;44.73;99907.03;5217889;27;20010;-80
2024/04/24 07:11:57;;;;;;;3.05;1.58;;;;;;;14.99;44.60;99912.75;5242493;27;20010;-78
2024/04/24 07:14:24;;;;;;;3.25;1.90;;;;;;;15.24;43.55;99924.88;5187527;27;20855;-79
2024/04/24 07:16:50;;;;;;;3.25;1.65;;;;;;;15.58;43.02;99927.09;5159046;27;20003;-79
2024/04/24 07:19:15;;;;;;;2.25;1.30;;;;;;;16.01;41.83;99926.28;5213562;27;20014;-79
2024/04/24 07:21:41;;;;;;;2.15;1.55;;;;;;;17.14;41.29;99922.88;5222014;27;20008;-79
2024/04/24 07:24:08;;;;;;;2.33;2.00;;;;;;;19.18;39.38;99917.31;5251943;27;20013;-79
2024/04/24 07:26:34;;;;;;;3.65;3.30;;;;;;;21.35;32.90;99919.06;5293238;26;20415;-80
2024/04/24 07:29:00;;;;;;;3.90;3.05;;;;;;;23.84;29.40;99917.47;5320794;26;20447;-79
2024/04/24 07:31:27;;;;;;;3.20;3.00;;;;;;;26.09;25.70;99919.03;5353128;26;20067;-79
2024/04/24 07:33:54;;;;;;;5.75;3.20;;;;;;;28.06;22.70;99913.66;5344536;26;20009;-80
2024/04/24 07:36:21;;;;;;;3.53;3.22;;;;;;;29.33;20.91;99914.63;5314097;26;20001;-79
2024/04/24 07:38:48;;;;;;;3.05;2.85;;;;;;;29.70;19.57;99915.19;5285441;26;20024;-79
2024/04/24 07:41:15;;;;;;;2.90;2.70;;;;;;;30.29;18.21;99918.09;5273979;27;20002;-80
2024/04/24 07:43:41;;;;;;;2.88;2.67;;;;;;;31.12;17.67;99900.69;5245734;27;20114;-79
2024/04/24 07:46:08;;;;;;;2.85;2.65;;;;;;;32.48;17.01;99898.25;5218811;27;20370;-80
2024/04/24 07:48:34;;;;;;;4.88;2.80;;;;;;;33.49;15.90;99892.09;5276282;27;20069;-78
2024/04/24 07:51:00;;;;;;;3.00;2.70;;;;;;;33.73;15.33;99895.53;5250517;27;20087;-80
2024/04/24 07:53:26;;;;;;;5.07;2.20;;;;;;;34.63;15.13;99889.34;5277950;27;20006;-79
2024/04/24 07:55:51;;;;;;;8.25;2.97;;;;;;;34.40;14.87;99882.94;5226140;27;20013;-80
2024/04/24 07:58:17;;;;;;;3.15;2.78;;;;;;;34.79;14.04;99880.41;5253444;27;20022;-79
2024/04/24 08:00:46;;;;;;;2.70;2.50;;;;;;;34.98;14.00;99875.56;5252804;27;20421;-80
2024/04/24 08:03:12;;;;;;;2.85;2.17;;;;;;;35.89;13.20;99876.84;5219080;27;20065;-79
2024/04/24 08:05:39;;;;;;;2.80;2.60;;;;;;;36.49;12.68;99864.06;5274275;27;20002;-79
2024/04/24 08:08:08;;;;;;;2.35;2.25;;;;;;;37.08;12.52;99871.63;5219330;27;20074;-81
2024/04/24 08:10:36;;;;;;;2.63;2.50;;;;;;;37.77;12.09;99864.06;5153030;27;20012;-80
2024/04/24 08:13:03;;;;;;;2.10;2.00;;;;;;;38.63;11.52;99853.34;5262222;27;20010;-80
2024/04/24 08:15:29;;;;;;;2.40;2.30;;;;;;;39.32;11.52;99856.41;5190766;27;20061;-81
2024/04/24 08:17:57;;;;;;;2.50;2.30;;;;;;;39.96;10.17;99852.75;5246823;27;20013;-80
2024/04/24 08:20:22;;;;;;;2.28;2.17;;;;;;;40.39;10.63;99841.03;5248907;27;20014;-79
2024/04/24 08:22:48;;;;;;;2.40;2.20;;;;;;;38.95;10.32;99837.91;5249770;27;20002;-80
2024/04/24 08:25:15;;;;;;;2.50;2.40;;;;;;;37.64;9.96;99840.09;5181535;27;20012;-78
2024/04/24 08:27:41;;;;;;;2.90;2.70;;;;;;;35.00;11.79;99826.38;5120007;27;20021;-78
2024/04/24 08:30:07;;;;;;;2.97;2.78;;;;;;;34.50;12.35;99835.00;5135070;27;20015;-77
2024/04/24 08:32:33;;;;;;;3.10;2.90;;;;;;;34.11;11.97;99827.25;5122665;27;20000;-77
2024/04/24 08:35:00;;;;;;;3.22;3.03;;;;;;;34.21;11.98;99827.88;5141481;27;20013;-77
2024/04/24 08:37:27;;;;;;;2.80;2.60;;;;;;;34.99;11.87;99805.44;5114461;27;20015;-77
2024/04/24 08:39:54;;;;;;;2.75;2.65;;;;;;;36.79;11.69;99815.28;5140485;27;20017;-77
2024/04/24 08:42:20;;;;;;;2.50;2.40;;;;;;;38.36;10.42;99801.09;5119480;27;20019;-80
2024/04/24 08:44:45;;;;;;;2.20;2.10;;;;;;;39.44;9.79;99801.63;5119844;27;20447;-75
2024/04/24 08:47:11;;;;;;;2.70;2.60;;;;;;;40.27;9.52;99796.53;5173490;27;20376;-80
2024/04/24 08:49:39;;;;;;;2.20;2.10;;;;;;;40.85;9.57;99800.66;5120215;27;20006;-77
2024/04/24 08:52:05;;;;;;;2.13;2.03;;;;;;;41.34;8.73;99785.34;5146416;27;20018;-81
2024/04/24 08:54:34;;;;;;;2.42;2.33;;;;;;;41.74;9.08;99792.41;5172963;27;20000;-80
2024/04/24 08:57:02;;;;;;;2.40;2.30;;;;;;;42.12;8.82;99786.16;5172598;27;20096;-78
2024/04/24 08:59:31;;;;;;;2.28;2.17;;;;;;;42.01;8.05;99787.91;5233336;27;20006;-78
2024/04/24 09:02:04;;;;;;;2.88;2.67;;;;;;;41.69;8.33;99787.09;5297014;27;20001;-78
2024/04/24 09:04:30;;;;;;;2.63;2.53;;;;;;;41.83;8.42;99778.28;5284834;27;20060;-75
2024/04/24 09:06:56;;;;;;;2.70;2.50;;;;;;;41.78;8.59;99769.38;5340664;26;20008;-75
2024/04/24 09:09:24;;;;;;;2.70;2.50;;;;;;;42.22;8.23;99773.63;5315459;26;20025;-77
2024/04/24 09:11:52;;;;;;;2.38;2.28;;;;;;;42.62;8.34;99763.81;5344875;26;20041;-75
2024/04/24 09:14:20;;;;;;;2.28;2.17;;;;;;;43.01;7.72;99768.19;5370366;26;20002;-75
2024/04/24 09:16:47;;;;;;;2.75;2.42;;;;;;;42.98;7.65;99756.97;5314089;26;20115;-77
2024/04/24 09:19:13;;;;;;;1.52;1.40;;;;;;;42.77;7.61;99756.53;5284996;26;20004;-76
2024/04/24 09:21:40;;;;;;;2.97;2.63;;;;;;;41.84;8.32;99753.97;5286596;26;20001;-78
2024/04/24 09:24:08;;;;;;;3.92;2.70;;;;;;;41.93;8.10;99755.44;5343164;26;19997;-75
2024/04/24 09:26:35;;;;;;;2.55;2.45;;;;;;;42.23;7.94;99745.34;5342751;26;20441;-78
2024/04/24 09:29:01;;;;;;;2.63;2.42;;;;;;;41.52;7.79;99747.59;5313703;26;19997;-79
2024/04/24 09:31:27;;;;;;;2.75;2.55;;;;;;;41.61;8.26;99743.47;5313915;26;20343;-77
2024/04/24 09:33:54;;;;;;;2.90;2.70;;;;;;;41.90;8.05;99744.97;5342723;26;20012;-78
2024/04/24 09:36:21;;;;;;;2.33;2.13;;;;;;;42.46;7.50;99748.25;5277839;27;20013;-76
2024/04/24 09:38:47;;;;;;;3.45;3.22;;;;;;;42.80;7.80;99753.00;5249646;27;20105;-75
2024/04/24 09:41:13;;;;;;;2.85;2.75;;;;;;;42.82;7.88;99750.66;5249031;27;20009;-76
2024/04/24 09:43:42;;;;;;;2.27;2.07;;;;;;;42.65;7.28;99739.88;5250150;27;20013;-75
2024/04/24 09:46:08;;;;;;;1.30;1.20;;;;;;;40.47;8.28;99730.69;5222597;27;20537;-76
2024/04/24 09:48:34;;;;;;;2.38;1.10;;;;;;;38.12;9.13;99743.47;5222488;27;19998;-74
2024/04/24 09:51:00;;;;;;;3.85;3.65;;;;;;;36.08;10.47;99739.16;5250390;27;20013;-74
2024/04/24 09:53:28;;;;;;;3.53;3.22;;;;;;;36.75;10.54;99728.47;5253177;27;20016;-75
2024/04/24 09:56:07;;;;;;;4.00;3.40;;;;;;;38.25;9.39;99739.66;5199087;27;20016;-77
2024/04/24 09:58:38;;;;;;;3.50;3.25;;;;;;;39.01;9.13;99733.78;5252413;27;20045;-76
2024/04/24 10:01:06;;;;;;;3.72;3.50;;;;;;;40.07;8.83;99736.22;5307526;27;20531;-74
2024/04/24 10:03:37;;;;;;;3.60;3.40;;;;;;;40.80;8.82;99729.28;5222201;27;20045;-74
2024/04/24 10:06:06;;;;;;;3.60;3.30;;;;;;;40.37;8.35;99737.56;5277750;27;20558;-74
2024/04/24 10:08:33;;;;;;;3.30;3.10;;;;;;;39.13;9.11;99726.28;5284731;26;20004;-74
2024/04/24 10:11:01;;;;;;;3.40;3.20;;;;;;;36.84;9.92;99738.38;5312618;26;20001;-75
2024/04/24 10:13:35;;;;;;;4.32;4.03;;;;;;;35.07;10.29;99730.13;5340039;26;20005;-73
2024/04/24 10:16:03;;;;;;;3.50;3.22;;;;;;;34.78;10.68;99710.41;5313863;26;20448;-74
2024/04/24 10:18:29;;;;;;;3.53;3.33;;;;;;;34.41;10.75;99709.97;5341431;26;20000;-73
2024/04/24 10:20:56;;;;;;;3.60;3.33;;;;;;;34.56;10.85;99707.66;5222294;27;20002;-73
2024/04/24 10:23:27;;;;;;;3.00;2.85;;;;;;;35.92;11.23;99707.56;5305748;27;20008;-74
2024/04/24 10:25:54;;;;;;;3.30;3.10;;;;;;;37.66;10.05;99706.69;5248861;27;20349;-75
2024/04/24 10:28:24;;;;;;;7.18;3.38;;;;;;;38.13;9.35;99706.28;5277961;27;20423;-72
2024/04/24 10:30:52;;;;;;;3.50;3.20;;;;;;;37.79;9.26;99698.16;5277323;27;20061;-73
2024/04/24 10:33:20;;;;;;;3.17;3.00;;;;;;;36.56;10.27;99694.78;5249226;27;20009;-74
2024/04/24 10:35:48;;;;;;;3.10;2.80;;;;;;;36.95;10.52;99700.91;5209739;27;20326;-72
2024/04/24 10:38:16;;;;;;;3.00;2.60;;;;;;;36.40;10.64;99691.69;5238120;27;20039;-73
2024/04/24 10:40:49;;;;;;;2.70;2.50;;;;;;;36.76;9.77;99706.00;5237239;27;20437;-75
2024/04/24 10:43:18;;;;;;;2.00;1.90;;;;;;;37.70;9.98;99696.59;5210435;27;20003;-74
2024/04/24 10:45:45;;;;;;;2.13;2.03;;;;;;;37.78;9.38;99692.94;5204529;27;20003;-74
2024/04/24 10:48:12;;;;;;;2.25;2.05;;;;;;;37.62;10.15;99681.59;5177244;27;20004;-75
2024/04/24 10:50:40;;;;;;;2.58;1.90;;;;;;;37.26;10.15;99686.03;5177693;27;20008;-75
2024/04/24 10:53:14;;;;;;;1.90;1.80;;;;;;;37.52;10.09;99686.72;5176246;27;20011;-75
2024/04/24 10:56:15;;;;;;;3.28;2.15;;;;;;;37.65;9.68;99680.91;5177824;27;20007;-75
2024/04/24 10:58:52;;;;;;;1.98;1.88;;;;;;;37.83;10.23;99678.91;5150078;27;20048;-73
2024/04/24 11:01:19;;;;;;;2.58;1.60;;;;;;;37.64;9.54;99676.53;5151740;27;20463;-74
2024/04/24 11:03:45;;;;;;;1.58;1.48;;;;;;;37.07;10.29;99669.75;5153564;27;20014;-73
2024/04/24 11:06:11;;;;;;;1.50;1.40;;;;;;;36.34;10.30;99664.50;5187781;27;20003;-74
2024/04/24 11:08:40;;;;;;;1.55;1.40;;;;;;;35.42;10.87;99659.28;5185962;27;20003;-73
2024/04/24 11:11:10;;;;;;;1.20;1.10;;;;;;;34.69;11.22;99657.09;5185706;27;19999;-74
2024/04/24 11:13:36;;;;;;;1.27;1.17;;;;;;;34.08;12.09;99651.44;5212961;27;20430;-74
2024/04/24 11:16:02;;;;;;;1.65;1.00;;;;;;;33.37;12.18;99659.56;5292710;26;20001;-77
2024/04/24 11:18:33;;;;;;;1.38;1.10;;;;;;;31.84;12.68;99653.38;5343410;26;20312;-73
2024/04/24 11:21:00;;;;;;;1.33;1.08;;;;;;;30.17;14.30;99646.31;5315337;26;20400;-73
2024/04/24 11:23:29;;;;;;;1.50;1.17;;;;;;;28.24;15.09;99659.97;5315333;26;20084;-73
2024/04/24 11:25:54;;;;;;;1.67;1.20;;;;;;;27.27;16.07;99653.66;5286778;26;20111;-73
2024/04/24 11:28:22;;;;;;;1.65;1.20;;;;;;;26.63;17.10;99642.09;5314996;26;20004;-72
2024/04/24 11:30:49;;;;;;;1.35;1.00;;;;;;;26.59;17.39;99640.09;5316138;26;20012;-70
2024/04/24 11:33:15;;;;;;;1.60;1.00;;;;;;;26.37;17.72;99642.94;5346402;26;20315;-73
2024/04/24 11:35:43;;;;;;;1.40;1.10;;;;;;;25.82;18.34;99635.06;5345251;26;19996;-73
2024/04/24 11:38:11;;;;;;;1.15;1.05;;;;;;;25.56;18.52;99622.25;5316391;26;20067;-73
2024/04/24 11:40:41;;;;;;;1.33;1.10;;;;;;;25.52;18.94;99631.19;5315441;26;20020;-73